sensor_id;sensor_type;location;lat;lon;timestamp;pressure;altitude;pressure_sealevel;temperature;humidity
5872;BME280;2962;51.312;7.378;2023-07-13T00:01:35;97387.34;;;14.71;100.00
5872;BME280;2962;51.312;7.378;2023-07-13T00:04:01;97383.06;;;14.66;100.00
5872;BME280;2962;51.312;7.378;2023-07-13T00:06:26;97379.53;;;14.62;100.00
5872;BME280;2962;51.312;7.378;2023-07-13T00:08:55;97376.44;;;14.42;100.00
5872;BME280;2962;51.312;7.378;2023-07-13T00:11:20;97385.81;;;14.48;100.00
5872;BME280;2962;51.312;7.378;2023-07-13T00:13:45;97382.31;;;14.37;100.00
5872;BME280;2962;51.312;7.378;2023-07-13T00:16:11;97401.13;;;14.21;100.00
5872;BME280;2962;51.312;7.378;2023-07-13T00:18:38;97393.31;;;13.98;100.00
5872;BME280;2962;51.312;7.378;2023-07-13T00:21:04;97396.44;;;14.03;100.00
5872;BME280;2962;51.312;7.378;2023-07-13T00:23:37;97389.78;;;13.79;100.00
5872;BME280;2962;51.312;7.378;2023-07-13T00:26:04;97394.47;;;13.75;100.00
5872;BME280;2962;51.312;7.378;2023-07-13T00:28:30;97386.63;;;13.56;100.00
5872;BME280;2962;51.312;7.378;2023-07-13T00:30:55;97394.84;;;13.63;100.00
5872;BME280;2962;51.312;7.378;2023-07-13T00:33:21;97387.81;;;13.80;100.00
5872;BME280;2962;51.312;7.378;2023-07-13T00:35:48;97369.41;;;13.48;100.00
5872;BME280;2962;51.312;7.378;2023-07-13T00:38:13;97376.47;;;13.42;100.00
5872;BME280;2962;51.312;7.378;2023-07-13T00:40:39;97381.50;;;13.33;100.00
5872;BME280;2962;51.312;7.378;2023-07-13T00:43:15;97391.28;;;13.30;100.00
5872;BME280;2962;51.312;7.378;2023-07-13T00:48:25;97396.38;;;13.39;100.00
5872;BME280;2962;51.312;7.378;2023-07-13T00:50:55;97389.31;;;13.27;100.00
5872;BME280;2962;51.312;7.378;2023-07-13T00:53:22;97381.84;;;13.17;100.00
5872;BME280;2962;51.312;7.378;2023-07-13T00:55:50;97374.03;;;13.15;100.00
5872;BME280;2962;51.312;7.378;2023-07-13T00:58:16;97375.19;;;13.11;100.00
5872;BME280;2962;51.312;7.378;2023-07-13T01:00:42;97378.31;;;13.16;100.00
5872;BME280;2962;51.312;7.378;2023-07-13T01:03:08;97376.34;;;13.13;100.00
5872;BME280;2962;51.312;7.378;2023-07-13T01:05:34;97367.81;;;13.26;100.00
5872;BME280;2962;51.312;7.378;2023-07-13T01:08:01;97377.22;;;13.32;100.00
5872;BME280;2962;51.312;7.378;2023-07-13T01:10:27;97370.94;;;13.28;100.00
5872;BME280;2962;51.312;7.378;2023-07-13T01:12:53;97380.66;;;13.14;100.00
5872;BME280;2962;51.312;7.378;2023-07-13T01:15:41;97376.38;;;13.17;100.00
5872;BME280;2962;51.312;7.378;2023-07-13T01:18:26;97368.50;;;13.01;100.00
5872;BME280;2962;51.312;7.378;2023-07-13T01:20:59;97370.84;;;12.95;100.00
5872;BME280;2962;51.312;7.378;2023-07-13T01:23:26;97378.25;;;12.88;100.00
5872;BME280;2962;51.312;7.378;2023-07-13T01:25:52;97380.94;;;12.84;100.00
5872;BME280;2962;51.312;7.378;2023-07-13T01:28:19;97384.81;;;12.80;100.00
5872;BME280;2962;51.312;7.378;2023-07-13T01:30:45;97370.34;;;12.72;100.00
5872;BME280;2962;51.312;7.378;2023-07-13T01:33:13;97373.09;;;12.68;100.00
5872;BME280;2962;51.312;7.378;2023-07-13T01:35:39;97357.00;;;12.60;100.00
5872;BME280;2962;51.312;7.378;2023-07-13T01:38:05;97375.34;;;12.56;100.00
5872;BME280;2962;51.312;7.378;2023-07-13T01:40:31;97366.75;;;12.54;100.00
5872;BME280;2962;51.312;7.378;2023-07-13T01:42:58;97366.34;;;12.52;100.00
5872;BME280;2962;51.312;7.378;2023-07-13T01:45:23;97375.78;;;12.61;100.00
5872;BME280;2962;51.312;7.378;2023-07-13T01:47:49;97369.50;;;12.57;100.00
5872;BME280;2962;51.312;7.378;2023-07-13T01:50:14;97374.53;;;12.48;100.00
5872;BME280;2962;51.312;7.378;2023-07-13T01:52:39;97378.84;;;12.53;100.00
5872;BME280;2962;51.312;7.378;2023-07-13T01:55:05;97370.22;;;12.43;100.00
5872;BME280;2962;51.312;7.378;2023-07-13T01:57:31;97374.06;;;12.35;100.00
5872;BME280;2962;51.312;7.378;2023-07-13T01:59:56;97369.81;;;12.38;100.00
5872;BME280;2962;51.312;7.378;2023-07-13T02:02:22;97372.50;;;12.34;100.00
5872;BME280;2962;51.312;7.378;2023-07-13T02:04:47;97362.72;;;12.26;100.00
5872;BME280;2962;51.312;7.378;2023-07-13T02:07:12;97370.91;;;12.30;100.00
5872;BME280;2962;51.312;7.378;2023-07-13T02:09:37;97371.31;;;12.32;100.00
5872;BME280;2962;51.312;7.378;2023-07-13T02:12:03;97383.38;;;12.27;100.00
5872;BME280;2962;51.312;7.378;2023-07-13T02:14:28;97375.94;;;12.24;100.00
5872;BME280;2962;51.312;7.378;2023-07-13T02:16:53;97366.94;;;12.16;100.00
5872;BME280;2962;51.312;7.378;2023-07-13T02:19:19;97383.75;;;12.26;100.00
5872;BME280;2962;51.312;7.378;2023-07-13T02:21:44;97379.84;;;12.23;100.00
5872;BME280;2962;51.312;7.378;2023-07-13T02:24:09;97376.69;;;12.17;100.00
5872;BME280;2962;51.312;7.378;2023-07-13T02:26:35;97376.69;;;12.17;100.00
5872;BME280;2962;51.312;7.378;2023-07-13T02:29:01;97371.97;;;12.14;100.00
5872;BME280;2962;51.312;7.378;2023-07-13T02:31:26;97363.34;;;12.09;100.00
5872;BME280;2962;51.312;7.378;2023-07-13T02:33:51;97366.09;;;12.09;100.00
5872;BME280;2962;51.312;7.378;2023-07-13T02:36:17;97384.13;;;12.20;100.00
5872;BME280;2962;51.312;7.378;2023-07-13T02:38:43;97373.53;;;12.12;100.00
5872;BME280;2962;51.312;7.378;2023-07-13T02:41:09;97380.47;;;12.02;100.00
5872;BME280;2962;51.312;7.378;2023-07-13T02:43:35;97381.25;;;12.03;100.00
5872;BME280;2962;51.312;7.378;2023-07-13T02:46:01;97377.28;;;11.93;100.00
5872;BME280;2962;51.312;7.378;2023-07-13T02:48:35;97362.91;;;12.00;100.00
5872;BME280;2962;51.312;7.378;2023-07-13T02:51:01;97378.03;;;11.90;100.00
5872;BME280;2962;51.312;7.378;2023-07-13T02:53:26;97388.72;;;12.09;100.00
5872;BME280;2962;51.312;7.378;2023-07-13T02:55:52;97363.19;;;11.87;100.00
5872;BME280;2962;51.312;7.378;2023-07-13T02:58:17;97363.66;;;11.93;100.00
5872;BME280;2962;51.312;7.378;2023-07-13T03:00:43;97374.91;;;11.91;100.00
5872;BME280;2962;51.312;7.378;2023-07-13T03:03:11;97373.34;;;11.87;100.00
5872;BME280;2962;51.312;7.378;2023-07-13T03:05:40;97369.38;;;11.81;100.00
5872;BME280;2962;51.312;7.378;2023-07-13T03:08:05;97370.66;;;11.94;100.00
5872;BME280;2962;51.312;7.378;2023-07-13T03:10:31;97373.38;;;11.90;100.00
5872;BME280;2962;51.312;7.378;2023-07-13T03:12:57;97371.41;;;11.91;100.00
5872;BME280;2962;51.312;7.378;2023-07-13T03:15:22;97378.75;;;11.83;100.00
5872;BME280;2962;51.312;7.378;2023-07-13T03:17:48;97374.78;;;11.73;100.00
5872;BME280;2962;51.312;7.378;2023-07-13T03:20:13;97381.41;;;11.72;100.00
5872;BME280;2962;51.312;7.378;2023-07-13T03:22:39;97371.97;;;11.66;100.00
5872;BME280;2962;51.312;7.378;2023-07-13T03:25:04;97386.84;;;11.72;100.00
5872;BME280;2962;51.312;7.378;2023-07-13T03:27:30;97391.16;;;11.73;100.00
5872;BME280;2962;51.312;7.378;2023-07-13T03:29:55;97389.47;;;11.62;100.00
5872;BME280;2962;51.312;7.378;2023-07-13T03:32:20;97383.63;;;11.63;100.00
5872;BME280;2962;51.312;7.378;2023-07-13T03:34:45;97388.72;;;11.61;100.00
5872;BME280;2962;51.312;7.378;2023-07-13T03:37:11;97374.50;;;11.45;100.00
5872;BME280;2962;51.312;7.378;2023-07-13T03:39:36;97391.75;;;11.56;100.00
5872;BME280;2962;51.312;7.378;2023-07-13T03:42:01;97398.81;;;11.57;100.00
5872;BME280;2962;51.312;7.378;2023-07-13T03:44:26;97400.38;;;11.58;100.00
5872;BME280;2962;51.312;7.378;2023-07-13T03:46:52;97399.94;;;11.56;100.00
5872;BME280;2962;51.312;7.378;2023-07-13T03:49:17;97399.22;;;11.63;100.00
5872;BME280;2962;51.312;7.378;2023-07-13T03:51:42;97401.56;;;11.61;100.00
5872;BME280;2962;51.312;7.378;2023-07-13T03:54:08;97415.25;;;11.68;100.00
5872;BME280;2962;51.312;7.378;2023-07-13T03:56:33;97412.22;;;11.77;100.00
5872;BME280;2962;51.312;7.378;2023-07-13T03:58:58;97411.75;;;11.67;100.00
5872;BME280;2962;51.312;7.378;2023-07-13T04:01:24;97410.69;;;11.79;100.00
5872;BME280;2962;51.312;7.378;2023-07-13T04:03:50;97420.91;;;11.86;100.00
5872;BME280;2962;51.312;7.378;2023-07-13T04:06:18;97426.47;;;11.96;100.00
5872;BME280;2962;51.312;7.378;2023-07-13T04:08:47;97422.50;;;11.90;100.00
5872;BME280;2962;51.312;7.378;2023-07-13T04:11:12;97424.81;;;11.85;100.00
5872;BME280;2962;51.312;7.378;2023-07-13T04:13:38;97416.69;;;11.92;100.00
5872;BME280;2962;51.312;7.378;2023-07-13T04:16:03;97415.19;;;12.02;100.00
5872;BME280;2962;51.312;7.378;2023-07-13T04:18:28;97430.88;;;12.12;100.00
5872;BME280;2962;51.312;7.378;2023-07-13T04:20:54;97426.59;;;12.14;100.00
5872;BME280;2962;51.312;7.378;2023-07-13T04:23:19;97424.94;;;12.03;100.00
5872;BME280;2962;51.312;7.378;2023-07-13T04:25:49;97427.03;;;12.20;100.00
5872;BME280;2962;51.312;7.378;2023-07-13T04:28:19;97431.31;;;12.21;100.00
5872;BME280;2962;51.312;7.378;2023-07-13T04:30:44;97421.88;;;12.08;100.00
5872;BME280;2962;51.312;7.378;2023-07-13T04:33:10;97424.31;;;12.20;100.00
5872;BME280;2962;51.312;7.378;2023-07-13T04:35:35;97435.34;;;12.34;100.00
5872;BME280;2962;51.312;7.378;2023-07-13T04:38:01;97409.50;;;12.25;100.00
5872;BME280;2962;51.312;7.378;2023-07-13T04:40:27;97406.44;;;12.33;100.00
5872;BME280;2962;51.312;7.378;2023-07-13T04:42:53;97418.25;;;12.48;100.00
5872;BME280;2962;51.312;7.378;2023-07-13T04:45:19;97431.56;;;12.53;100.00
5872;BME280;2962;51.312;7.378;2023-07-13T04:47:44;97429.25;;;12.59;100.00
5872;BME280;2962;51.312;7.378;2023-07-13T04:50:13;97413.56;;;12.52;100.00
5872;BME280;2962;51.312;7.378;2023-07-13T04:52:43;97412.09;;;12.62;100.00
5872;BME280;2962;51.312;7.378;2023-07-13T04:55:09;97409.41;;;12.69;100.00
5872;BME280;2962;51.312;7.378;2023-07-13T04:57:34;97427.78;;;12.79;100.00
5872;BME280;2962;51.312;7.378;2023-07-13T04:59:59;97426.19;;;12.75;100.00
5872;BME280;2962;51.312;7.378;2023-07-13T05:02:26;97416.53;;;12.88;100.00
5872;BME280;2962;51.312;7.378;2023-07-13T05:04:53;97409.84;;;12.85;100.00
5872;BME280;2962;51.312;7.378;2023-07-13T05:07:18;97418.47;;;12.91;100.00
5872;BME280;2962;51.312;7.378;2023-07-13T05:09:43;97434.53;;;13.00;100.00
5872;BME280;2962;51.312;7.378;2023-07-13T05:12:09;97429.41;;;12.91;100.00
5872;BME280;2962;51.312;7.378;2023-07-13T05:14:35;97445.78;;;12.87;100.00
5872;BME280;2962;51.312;7.378;2023-07-13T05:17:00;97450.66;;;13.23;100.00
5872;BME280;2962;51.312;7.378;2023-07-13T05:19:26;97440.03;;;13.10;100.00
5872;BME280;2962;51.312;7.378;2023-07-13T05:21:51;97452.25;;;13.27;100.00
5872;BME280;2962;51.312;7.378;2023-07-13T05:24:16;97448.34;;;13.28;100.00
5872;BME280;2962;51.312;7.378;2023-07-13T05:26:42;97445.59;;;13.25;100.00
5872;BME280;2962;51.312;7.378;2023-07-13T05:29:07;97460.09;;;13.36;100.00
5872;BME280;2962;51.312;7.378;2023-07-13T05:31:32;97448.38;;;13.39;100.00
5872;BME280;2962;51.312;7.378;2023-07-13T05:33:57;97450.38;;;13.49;100.00
5872;BME280;2962;51.312;7.378;2023-07-13T05:36:23;97454.72;;;13.79;100.00
5872;BME280;2962;51.312;7.378;2023-07-13T05:38:48;97461.75;;;13.69;100.00
5872;BME280;2962;51.312;7.378;2023-07-13T05:41:13;97466.09;;;14.02;100.00
5872;BME280;2962;51.312;7.378;2023-07-13T05:43:39;97459.06;;;14.12;100.00
5872;BME280;2962;51.312;7.378;2023-07-13T05:46:04;97468.03;;;14.41;100.00
5872;BME280;2962;51.312;7.378;2023-07-13T05:48:29;97465.72;;;14.47;100.00
5872;BME280;2962;51.312;7.378;2023-07-13T05:50:54;97475.09;;;14.63;100.00
5872;BME280;2962;51.312;7.378;2023-07-13T05:53:20;97470.72;;;14.95;100.00
5872;BME280;2962;51.312;7.378;2023-07-13T05:55:47;97472.75;;;14.73;100.00
5872;BME280;2962;51.312;7.378;2023-07-13T05:58:13;97477.81;;;14.85;100.00
5872;BME280;2962;51.312;7.378;2023-07-13T06:00:38;97482.13;;;14.75;100.00
5872;BME280;2962;51.312;7.378;2023-07-13T06:03:03;97471.53;;;14.95;100.00
5872;BME280;2962;51.312;7.378;2023-07-13T06:05:29;97473.06;;;15.03;100.00
5872;BME280;2962;51.312;7.378;2023-07-13T06:07:54;97476.22;;;14.91;100.00
5872;BME280;2962;51.312;7.378;2023-07-13T06:10:20;97475.50;;;14.73;100.00
5872;BME280;2962;51.312;7.378;2023-07-13T06:12:45;97488.38;;;14.90;100.00
5872;BME280;2962;51.312;7.378;2023-07-13T06:15:11;97483.69;;;14.83;100.00
5872;BME280;2962;51.312;7.378;2023-07-13T06:17:36;97497.34;;;15.08;100.00
5872;BME280;2962;51.312;7.378;2023-07-13T06:20:01;97506.38;;;15.05;100.00
5872;BME280;2962;51.312;7.378;2023-07-13T06:22:27;97498.13;;;15.02;100.00
5872;BME280;2962;51.312;7.378;2023-07-13T06:24:52;97492.66;;;15.05;100.00
5872;BME280;2962;51.312;7.378;2023-07-13T06:27:17;97516.16;;;15.10;100.00
5872;BME280;2962;51.312;7.378;2023-07-13T06:29:42;97500.94;;;14.80;100.00
5872;BME280;2962;51.312;7.378;2023-07-13T06:32:10;97522.47;;;14.89;100.00
5872;BME280;2962;51.312;7.378;2023-07-13T06:34:35;97504.50;;;14.63;100.00
5872;BME280;2962;51.312;7.378;2023-07-13T06:37:00;97504.91;;;14.54;100.00
5872;BME280;2962;51.312;7.378;2023-07-13T06:39:26;97499.78;;;14.67;100.00
5872;BME280;2962;51.312;7.378;2023-07-13T06:41:51;97508.00;;;14.74;100.00
5872;BME280;2962;51.312;7.378;2023-07-13T06:44:16;97520.88;;;15.02;100.00
5872;BME280;2962;51.312;7.378;2023-07-13T06:46:42;97526.41;;;14.95;100.00
5872;BME280;2962;51.312;7.378;2023-07-13T06:49:08;97523.66;;;14.88;100.00
5872;BME280;2962;51.312;7.378;2023-07-13T06:51:34;97526.00;;;14.93;100.00
5872;BME280;2962;51.312;7.378;2023-07-13T06:53:59;97492.28;;;15.07;100.00
5872;BME280;2962;51.312;7.378;2023-07-13T06:56:25;97530.50;;;15.57;100.00
5872;BME280;2962;51.312;7.378;2023-07-13T06:58:50;97528.13;;;15.70;100.00
5872;BME280;2962;51.312;7.378;2023-07-13T07:01:15;97521.09;;;15.65;100.00
5872;BME280;2962;51.312;7.378;2023-07-13T07:03:40;97524.59;;;15.73;100.00
5872;BME280;2962;51.312;7.378;2023-07-13T07:06:19;97515.59;;;15.69;100.00
5872;BME280;2962;51.312;7.378;2023-07-13T07:08:45;97543.66;;;15.98;100.00
5872;BME280;2962;51.312;7.378;2023-07-13T07:11:17;97521.31;;;15.99;100.00
5872;BME280;2962;51.312;7.378;2023-07-13T07:13:43;97524.50;;;15.83;100.00
5872;BME280;2962;51.312;7.378;2023-07-13T07:16:08;97524.81;;;16.03;100.00
5872;BME280;2962;51.312;7.378;2023-07-13T07:18:34;97530.66;;;16.05;100.00
5872;BME280;2962;51.312;7.378;2023-07-13T07:20:59;97545.69;;;15.86;100.00
5872;BME280;2962;51.312;7.378;2023-07-13T07:23:25;97535.84;;;15.96;100.00
5872;BME280;2962;51.312;7.378;2023-07-13T07:25:50;97525.53;;;16.15;100.00
5872;BME280;2962;51.312;7.378;2023-07-13T07:28:17;97544.38;;;16.09;100.00
5872;BME280;2962;51.312;7.378;2023-07-13T07:30:47;97527.13;;;16.05;100.00
5872;BME280;2962;51.312;7.378;2023-07-13T07:33:13;97535.78;;;16.07;100.00
5872;BME280;2962;51.312;7.378;2023-07-13T07:35:38;97505.31;;;15.80;100.00
5872;BME280;2962;51.312;7.378;2023-07-13T07:38:03;97548.28;;;16.15;100.00
5872;BME280;2962;51.312;7.378;2023-07-13T07:40:29;97537.91;;;16.37;100.00
5872;BME280;2962;51.312;7.378;2023-07-13T07:42:54;97534.97;;;16.62;100.00
5872;BME280;2962;51.312;7.378;2023-07-13T07:45:20;97522.06;;;16.52;100.00
5872;BME280;2962;51.312;7.378;2023-07-13T07:47:46;97539.59;;;16.72;100.00
5872;BME280;2962;51.312;7.378;2023-07-13T07:50:11;97530.13;;;16.80;100.00
5872;BME280;2962;51.312;7.378;2023-07-13T07:52:36;97528.53;;;16.79;100.00
5872;BME280;2962;51.312;7.378;2023-07-13T07:55:04;97522.25;;;16.30;100.00
5872;BME280;2962;51.312;7.378;2023-07-13T07:57:29;97521.47;;;16.33;100.00
5872;BME280;2962;51.312;7.378;2023-07-13T07:59:55;97523.91;;;16.69;100.00
5872;BME280;2962;51.312;7.378;2023-07-13T08:02:20;97514.75;;;16.83;100.00
5872;BME280;2962;51.312;7.378;2023-07-13T08:04:45;97528.22;;;16.74;100.00
5872;BME280;2962;51.312;7.378;2023-07-13T08:07:10;97536.78;;;16.79;100.00
5872;BME280;2962;51.312;7.378;2023-07-13T08:09:36;97536.84;;;16.76;100.00
5872;BME280;2962;51.312;7.378;2023-07-13T08:12:01;97539.28;;;17.08;100.00
5872;BME280;2962;51.312;7.378;2023-07-13T08:14:26;97537.03;;;16.99;100.00
5872;BME280;2962;51.312;7.378;2023-07-13T08:16:51;97539.47;;;16.90;100.00
5872;BME280;2962;51.312;7.378;2023-07-13T08:19:17;97532.66;;;17.02;100.00
5872;BME280;2962;51.312;7.378;2023-07-13T08:21:42;97540.56;;;17.00;100.00
5872;BME280;2962;51.312;7.378;2023-07-13T08:24:08;97536.66;;;16.94;100.00
5872;BME280;2962;51.312;7.378;2023-07-13T08:26:34;97538.56;;;17.38;100.00
5872;BME280;2962;51.312;7.378;2023-07-13T08:28:59;97525.28;;;17.29;100.00
5872;BME280;2962;51.312;7.378;2023-07-13T08:31:25;97548.94;;;17.27;100.00
5872;BME280;2962;51.312;7.378;2023-07-13T08:33:50;97529.84;;;17.43;100.00
5872;BME280;2962;51.312;7.378;2023-07-13T08:36:15;97526.38;;;17.70;100.00
5872;BME280;2962;51.312;7.378;2023-07-13T08:38:40;97556.47;;;18.18;100.00
5872;BME280;2962;51.312;7.378;2023-07-13T08:41:15;97525.38;;;17.87;100.00
5872;BME280;2962;51.312;7.378;2023-07-13T08:43:42;97538.19;;;17.70;100.00
5872;BME280;2962;51.312;7.378;2023-07-13T08:46:20;97532.34;;;17.99;100.00
5872;BME280;2962;51.312;7.378;2023-07-13T08:48:52;97531.44;;;17.75;100.00
5872;BME280;2962;51.312;7.378;2023-07-13T08:54:34;97524.44;;;17.67;100.00
5872;BME280;2962;51.312;7.378;2023-07-13T08:57:10;97529.75;;;17.85;100.00
5872;BME280;2962;51.312;7.378;2023-07-13T08:59:37;97535.78;;;17.76;100.00
5872;BME280;2962;51.312;7.378;2023-07-13T09:05:01;97535.25;;;17.54;100.00
5872;BME280;2962;51.312;7.378;2023-07-13T09:10:41;97530.94;;;17.53;100.00
5872;BME280;2962;51.312;7.378;2023-07-13T09:13:29;97539.31;;;17.42;100.00
5872;BME280;2962;51.312;7.378;2023-07-13T09:15:59;97535.50;;;17.29;100.00
5872;BME280;2962;51.312;7.378;2023-07-13T09:18:37;97542.53;;;17.68;100.00
5872;BME280;2962;51.312;7.378;2023-07-13T09:21:10;97534.13;;;17.82;100.00
5872;BME280;2962;51.312;7.378;2023-07-13T09:23:38;97544.75;;;17.84;100.00
5872;BME280;2962;51.312;7.378;2023-07-13T09:26:06;97534.50;;;17.84;100.00
5872;BME280;2962;51.312;7.378;2023-07-13T09:28:41;97542.25;;;17.93;100.00
5872;BME280;2962;51.312;7.378;2023-07-13T09:31:13;97532.47;;;18.42;100.00
5872;BME280;2962;51.312;7.378;2023-07-13T09:33:39;97533.00;;;18.34;100.00
5872;BME280;2962;51.312;7.378;2023-07-13T09:36:32;97542.19;;;18.50;100.00
5872;BME280;2962;51.312;7.378;2023-07-13T09:39:04;97543.28;;;18.57;100.00
5872;BME280;2962;51.312;7.378;2023-07-13T09:41:44;97540.31;;;18.67;100.00
5872;BME280;2962;51.312;7.378;2023-07-13T09:44:18;97549.34;;;18.71;100.00
5872;BME280;2962;51.312;7.378;2023-07-13T09:46:55;97548.88;;;19.00;100.00
5872;BME280;2962;51.312;7.378;2023-07-13T09:49:25;97559.06;;;19.46;100.00
5872;BME280;2962;51.312;7.378;2023-07-13T09:51:58;97528.59;;;18.87;100.00
5872;BME280;2962;51.312;7.378;2023-07-13T09:54:25;97557.75;;;19.11;100.00
5872;BME280;2962;51.312;7.378;2023-07-13T09:56:57;97563.31;;;19.51;100.00
5872;BME280;2962;51.312;7.378;2023-07-13T09:59:29;97560.53;;;19.11;100.00
5872;BME280;2962;51.312;7.378;2023-07-13T10:01:54;97559.16;;;18.99;100.00
5872;BME280;2962;51.312;7.378;2023-07-13T10:04:27;97566.56;;;19.02;100.00
5872;BME280;2962;51.312;7.378;2023-07-13T10:07:05;97551.41;;;19.34;100.00
5872;BME280;2962;51.312;7.378;2023-07-13T10:09:31;97553.00;;;19.75;100.00
5872;BME280;2962;51.312;7.378;2023-07-13T10:11:57;97550.75;;;20.06;100.00
5872;BME280;2962;51.312;7.378;2023-07-13T10:14:22;97556.31;;;19.86;100.00
5872;BME280;2962;51.312;7.378;2023-07-13T10:16:55;97549.88;;;19.73;100.00
5872;BME280;2962;51.312;7.378;2023-07-13T10:19:25;97581.75;;;19.58;100.00
5872;BME280;2962;51.312;7.378;2023-07-13T10:22:02;97571.41;;;19.42;100.00
5872;BME280;2962;51.312;7.378;2023-07-13T10:24:37;97555.13;;;19.04;100.00
5872;BME280;2962;51.312;7.378;2023-07-13T10:27:13;97576.81;;;19.69;100.00
5872;BME280;2962;51.312;7.378;2023-07-13T10:29:51;97584.88;;;19.99;100.00
5872;BME280;2962;51.312;7.378;2023-07-13T10:32:19;97577.66;;;19.86;100.00
5872;BME280;2962;51.312;7.378;2023-07-13T10:34:47;97580.16;;;19.80;100.00
5872;BME280;2962;51.312;7.378;2023-07-13T10:37:23;97575.09;;;19.75;100.00
5872;BME280;2962;51.312;7.378;2023-07-13T10:39:51;97576.72;;;20.65;100.00
5872;BME280;2962;51.312;7.378;2023-07-13T10:42:27;97571.66;;;21.09;100.00
5872;BME280;2962;51.312;7.378;2023-07-13T10:44:54;97592.16;;;20.10;100.00
5872;BME280;2962;51.312;7.378;2023-07-13T10:47:19;97578.19;;;19.37;100.00
5872;BME280;2962;51.312;7.378;2023-07-13T10:49:55;97580.78;;;19.68;100.00
5872;BME280;2962;51.312;7.378;2023-07-13T10:52:44;97584.78;;;19.43;100.00
5872;BME280;2962;51.312;7.378;2023-07-13T10:55:34;97584.13;;;18.92;100.00
5872;BME280;2962;51.312;7.378;2023-07-13T10:58:03;97592.25;;;19.86;100.00
5872;BME280;2962;51.312;7.378;2023-07-13T11:00:43;97583.03;;;20.49;100.00
5872;BME280;2962;51.312;7.378;2023-07-13T11:03:14;97595.56;;;20.86;100.00
5872;BME280;2962;51.312;7.378;2023-07-13T11:05:40;97595.22;;;21.33;100.00
5872;BME280;2962;51.312;7.378;2023-07-13T11:08:32;97583.56;;;21.67;100.00
5872;BME280;2962;51.312;7.378;2023-07-13T11:10:58;97603.44;;;21.66;100.00
5872;BME280;2962;51.312;7.378;2023-07-13T11:21:27;97598.19;;;20.61;100.00
5872;BME280;2962;51.312;7.378;2023-07-13T11:24:04;97599.00;;;21.23;100.00
5872;BME280;2962;51.312;7.378;2023-07-13T11:26:44;97609.91;;;21.47;100.00
5872;BME280;2962;51.312;7.378;2023-07-13T11:29:44;97586.13;;;22.04;100.00
5872;BME280;2962;51.312;7.378;2023-07-13T11:32:25;97595.50;;;22.74;100.00
5872;BME280;2962;51.312;7.378;2023-07-13T11:34:54;97594.91;;;22.79;100.00
5872;BME280;2962;51.312;7.378;2023-07-13T11:37:21;97593.38;;;22.14;100.00
5872;BME280;2962;51.312;7.378;2023-07-13T11:39:50;97607.69;;;22.25;100.00
5872;BME280;2962;51.312;7.378;2023-07-13T11:42:17;97592.22;;;21.40;100.00
5872;BME280;2962;51.312;7.378;2023-07-13T11:44:48;97584.50;;;21.03;100.00
5872;BME280;2962;51.312;7.378;2023-07-13T11:47:19;97594.69;;;21.06;100.00
5872;BME280;2962;51.312;7.378;2023-07-13T11:49:52;97592.38;;;21.04;100.00
5872;BME280;2962;51.312;7.378;2023-07-13T11:52:25;97600.84;;;20.97;100.00
5872;BME280;2962;51.312;7.378;2023-07-13T11:54:55;97607.16;;;20.65;100.00
5872;BME280;2962;51.312;7.378;2023-07-13T11:57:26;97591.09;;;20.76;100.00
5872;BME280;2962;51.312;7.378;2023-07-13T11:59:54;97594.44;;;21.62;100.00
5872;BME280;2962;51.312;7.378;2023-07-13T12:02:29;97588.88;;;22.04;100.00
5872;BME280;2962;51.312;7.378;2023-07-13T12:04:57;97581.06;;;22.66;100.00
5872;BME280;2962;51.312;7.378;2023-07-13T12:07:22;97590.31;;;23.23;100.00
5872;BME280;2962;51.312;7.378;2023-07-13T12:09:48;97593.91;;;22.85;100.00
5872;BME280;2962;51.312;7.378;2023-07-13T12:12:28;97612.81;;;22.39;100.00
5872;BME280;2962;51.312;7.378;2023-07-13T12:14:54;97576.72;;;22.39;100.00
5872;BME280;2962;51.312;7.378;2023-07-13T12:17:22;97582.00;;;22.08;100.00
5872;BME280;2962;51.312;7.378;2023-07-13T12:19:49;97583.59;;;22.86;100.00
5872;BME280;2962;51.312;7.378;2023-07-13T12:22:17;97578.53;;;23.19;100.00
5872;BME280;2962;51.312;7.378;2023-07-13T12:24:43;97563.06;;;23.53;100.00
5872;BME280;2962;51.312;7.378;2023-07-13T12:27:21;97579.91;;;23.02;100.00
5872;BME280;2962;51.312;7.378;2023-07-13T12:29:56;97578.09;;;21.93;100.00
5872;BME280;2962;51.312;7.378;2023-07-13T12:32:24;97564.41;;;21.73;100.00
5872;BME280;2962;51.312;7.378;2023-07-13T12:34:55;97590.59;;;21.27;100.00
5872;BME280;2962;51.312;7.378;2023-07-13T12:39:47;97591.63;;;23.31;100.00
5872;BME280;2962;51.312;7.378;2023-07-13T12:42:23;97599.97;;;23.66;100.00
5872;BME280;2962;51.312;7.378;2023-07-13T12:44:54;97611.44;;;23.55;100.00
5872;BME280;2962;51.312;7.378;2023-07-13T12:47:21;97591.75;;;23.84;100.00
5872;BME280;2962;51.312;7.378;2023-07-13T12:49:49;97585.69;;;24.70;100.00
5872;BME280;2962;51.312;7.378;2023-07-13T12:52:35;97594.78;;;23.77;100.00
5872;BME280;2962;51.312;7.378;2023-07-13T12:55:13;97594.19;;;23.82;100.00
5872;BME280;2962;51.312;7.378;2023-07-13T12:57:50;97600.44;;;24.40;100.00
5872;BME280;2962;51.312;7.378;2023-07-13T13:00:38;97586.19;;;24.78;100.00
5872;BME280;2962;51.312;7.378;2023-07-13T13:03:26;97564.41;;;24.95;100.00
5872;BME280;2962;51.312;7.378;2023-07-13T13:08:25;97579.78;;;25.36;100.00
5872;BME280;2962;51.312;7.378;2023-07-13T13:10:50;97586.81;;;26.29;94.12
5872;BME280;2962;51.312;7.378;2023-07-13T13:13:15;97594.06;;;25.38;100.00
5872;BME280;2962;51.312;7.378;2023-07-13T13:15:40;97593.25;;;24.60;100.00
5872;BME280;2962;51.312;7.378;2023-07-13T13:18:24;97594.75;;;23.21;100.00
5872;BME280;2962;51.312;7.378;2023-07-13T13:20:50;97595.41;;;22.26;100.00
5872;BME280;2962;51.312;7.378;2023-07-13T13:23:18;97593.50;;;21.81;100.00
5872;BME280;2962;51.312;7.378;2023-07-13T13:25:45;97598.66;;;21.37;100.00
5872;BME280;2962;51.312;7.378;2023-07-13T13:28:19;97597.41;;;20.77;100.00
5872;BME280;2962;51.312;7.378;2023-07-13T13:30:46;97591.50;;;20.22;100.00
5872;BME280;2962;51.312;7.378;2023-07-13T13:33:14;97579.31;;;20.72;100.00
5872;BME280;2962;51.312;7.378;2023-07-13T13:35:41;97600.16;;;22.38;100.00
5872;BME280;2962;51.312;7.378;2023-07-13T13:38:24;97581.47;;;24.25;100.00
5872;BME280;2962;51.312;7.378;2023-07-13T13:40:50;97599.03;;;24.13;100.00